createdAt,value
2018-05-24T00:00:04.359Z,34.91
2018-05-24T00:02:34.424Z,34.96
2018-05-24T00:05:03.960Z,35.03
2018-05-24T00:07:33.363Z,35.04
2018-05-24T00:10:02.899Z,35.27
2018-05-24T00:12:32.427Z,35.30
2018-05-24T00:15:01.703Z,35.43
2018-05-24T00:17:30.790Z,35.40
2018-05-24T00:19:59.769Z,35.40
2018-05-24T00:22:28.628Z,35.41
2018-05-24T00:24:58.401Z,35.44
2018-05-24T00:27:27.572Z,35.28
2018-05-24T00:29:56.342Z,35.56
2018-05-24T00:32:25.824Z,35.65
2018-05-24T00:34:55.347Z,35.67
2018-05-24T00:37:25.183Z,35.96
2018-05-24T00:39:54.132Z,35.93
2018-05-24T00:42:24.339Z,36.08
2018-05-24T00:44:53.277Z,36.28
2018-05-24T00:47:22.216Z,36.26
2018-05-24T00:49:51.059Z,36.26
2018-05-24T00:52:20.984Z,36.02
2018-05-24T00:54:50.674Z,35.69
2018-05-24T00:57:20.053Z,35.93
2018-05-24T00:59:49.523Z,36.09
2018-05-24T01:02:19.043Z,36.30
2018-05-24T01:04:48.793Z,36.59
2018-05-24T01:07:17.856Z,36.39
2018-05-24T01:09:46.704Z,36.71
2018-05-24T01:12:16.283Z,36.82
2018-05-24T01:14:45.706Z,36.84
2018-05-24T01:17:16.053Z,36.97
2018-05-24T01:19:45.639Z,37.06
2018-05-24T01:22:15.597Z,37.25
2018-05-24T01:24:45.366Z,37.23
2018-05-24T01:27:15.026Z,37.34
2018-05-24T01:29:44.030Z,37.43
2018-05-24T01:32:13.425Z,37.22
2018-05-24T01:34:42.857Z,36.92
2018-05-24T01:37:23.933Z,36.57
2018-05-24T01:39:52.961Z,36.44
2018-05-24T01:42:22.426Z,36.45
2018-05-24T01:44:51.316Z,36.40
2018-05-24T01:47:20.313Z,36.31
2018-05-24T01:49:50.260Z,36.18
2018-05-24T01:52:19.108Z,35.96
2018-05-24T01:54:48.451Z,36.07
2018-05-24T01:57:18.529Z,35.99
2018-05-24T01:59:47.597Z,36.00
2018-05-24T02:02:17.804Z,36.06
2018-05-24T02:04:47.324Z,36.18
2018-05-24T02:07:16.374Z,36.26
2018-05-24T02:09:45.885Z,36.36
2018-05-24T02:12:14.859Z,36.26
2018-05-24T02:14:44.470Z,36.30
2018-05-24T02:17:13.728Z,36.33
2018-05-24T02:19:43.997Z,36.39
2018-05-24T02:22:13.329Z,36.41
2018-05-24T02:24:42.563Z,36.48
2018-05-24T02:27:11.751Z,36.50
2018-05-24T02:29:40.839Z,36.20
2018-05-24T02:32:10.216Z,36.54
2018-05-24T02:34:38.881Z,36.44
2018-05-24T02:37:08.510Z,36.39
2018-05-24T02:39:38.021Z,36.03
2018-05-24T02:42:08.225Z,36.00
2018-05-24T02:44:37.421Z,36.13
2018-05-24T02:47:06.707Z,36.34
2018-05-24T02:49:36.768Z,36.46
2018-05-24T02:52:05.703Z,36.60
2018-05-24T02:54:35.454Z,36.62
2018-05-24T02:57:05.234Z,36.68
2018-05-24T02:59:34.478Z,36.65
2018-05-24T03:02:04.408Z,36.91
2018-05-24T03:04:33.334Z,37.36
2018-05-24T03:07:02.637Z,37.66
2018-05-24T03:09:31.934Z,37.46
2018-05-24T03:12:00.745Z,37.25
2018-05-24T03:14:30.352Z,37.45
2018-05-24T03:17:00.279Z,37.58
2018-05-24T03:19:29.657Z,37.65
2018-05-24T03:21:59.260Z,37.34
2018-05-24T03:24:28.848Z,37.74
2018-05-24T03:26:58.424Z,37.64
2018-05-24T03:29:27.829Z,37.81
2018-05-24T03:31:56.749Z,37.62
2018-05-24T03:34:26.044Z,37.63
2018-05-24T03:36:55.571Z,37.67
2018-05-24T03:39:25.365Z,38.15
2018-05-24T03:41:55.243Z,38.16
2018-05-24T03:44:25.303Z,37.97
2018-05-24T03:46:55.505Z,38.41
2018-05-24T03:49:25.077Z,38.23
2018-05-24T03:51:54.706Z,38.17
2018-05-24T03:54:24.367Z,37.85
2018-05-24T03:56:54.145Z,37.87
2018-05-24T04:02:54.032Z,38.06
2018-05-24T04:05:23.342Z,38.29
2018-05-24T04:07:52.972Z,38.08
2018-05-24T04:10:21.649Z,38.05
2018-05-24T04:12:51.273Z,38.06
2018-05-24T04:15:20.410Z,38.22
2018-05-24T04:17:49.309Z,38.25
2018-05-24T04:20:19.282Z,38.37
2018-05-24T04:22:48.167Z,38.20
2018-05-24T04:25:17.361Z,38.11
2018-05-24T04:27:46.909Z,38.15
2018-05-24T04:30:16.634Z,38.12
2018-05-24T04:32:45.968Z,38.07
2018-05-24T04:35:16.086Z,38.26
2018-05-24T04:37:45.059Z,38.41
2018-05-24T04:40:14.497Z,38.22
2018-05-24T04:42:43.857Z,38.24
2018-05-24T04:45:12.709Z,38.36
2018-05-24T04:47:42.360Z,38.51
2018-05-24T04:50:11.712Z,38.28
2018-05-24T04:52:41.032Z,38.20
2018-05-24T04:55:11.134Z,38.42
2018-05-24T04:57:39.928Z,38.41
2018-05-24T05:00:08.791Z,38.37
2018-05-24T05:02:38.455Z,38.36
2018-05-24T05:05:13.818Z,38.25
2018-05-24T05:07:43.131Z,38.26
2018-05-24T05:10:13.048Z,38.14
2018-05-24T05:12:41.501Z,38.12
2018-05-24T05:15:11.225Z,38.19
2018-05-24T05:17:39.779Z,38.17
2018-05-24T05:20:10.062Z,38.12
2018-05-24T05:22:39.641Z,38.02
2018-05-24T05:25:08.545Z,37.97
2018-05-24T05:27:38.297Z,37.75
2018-05-24T05:30:07.882Z,37.52
2018-05-24T05:32:38.075Z,37.51
2018-05-24T05:35:07.997Z,37.36
2018-05-24T05:37:37.737Z,37.25
2018-05-24T05:40:07.060Z,37.20
2018-05-24T05:42:36.424Z,37.02
2018-05-24T05:45:05.799Z,36.79
2018-05-24T05:47:35.608Z,36.55
2018-05-24T05:50:05.292Z,35.91
2018-05-24T05:52:34.369Z,35.78
2018-05-24T05:55:03.711Z,35.38
2018-05-24T05:57:33.129Z,35.13
2018-05-24T06:00:02.672Z,35.10
2018-05-24T06:02:32.520Z,35.03
2018-05-24T06:05:02.343Z,34.99
2018-05-24T06:07:32.192Z,35.03
2018-05-24T06:10:01.144Z,34.92
2018-05-24T06:12:30.670Z,34.98
2018-05-24T06:14:59.575Z,35.09
2018-05-24T06:17:28.691Z,35.17
2018-05-24T06:19:57.714Z,35.11
2018-05-24T06:22:27.217Z,35.04
2018-05-24T06:24:56.502Z,35.01
2018-05-24T06:27:27.507Z,34.84
2018-05-24T06:29:57.400Z,34.75
2018-05-24T06:32:27.201Z,34.44
2018-05-24T06:34:56.344Z,34.10
2018-05-24T06:37:26.526Z,32.96
2018-05-24T06:39:55.880Z,33.19
2018-05-24T06:42:25.839Z,33.42
2018-05-24T06:44:55.776Z,33.25
2018-05-24T06:47:24.668Z,33.19
2018-05-24T06:49:54.144Z,32.80
2018-05-24T06:52:27.340Z,32.53
2018-05-24T06:54:56.271Z,32.83
2018-05-24T06:57:25.811Z,33.19
2018-05-24T06:59:55.505Z,32.99
2018-05-24T07:02:24.663Z,32.42
2018-05-24T07:04:54.266Z,32.12
2018-05-24T07:07:23.749Z,32.44
2018-05-24T07:09:52.862Z,32.42
2018-05-24T07:12:22.589Z,32.24
2018-05-24T07:14:52.029Z,32.28
2018-05-24T07:17:22.034Z,32.36
2018-05-24T07:19:52.335Z,32.14
2018-05-24T07:22:22.031Z,32.38
2018-05-24T07:24:51.405Z,32.29
2018-05-24T07:27:20.446Z,32.39
2018-05-24T07:29:50.029Z,32.23
2018-05-24T07:32:19.282Z,32.03
2018-05-24T07:34:49.602Z,31.90
2018-05-24T07:37:19.378Z,31.58
2018-05-24T07:39:49.286Z,31.31
2018-05-24T07:42:19.200Z,31.45
2018-05-24T07:44:48.497Z,30.74
2018-05-24T07:47:18.446Z,30.31
2018-05-24T07:49:48.794Z,31.30
2018-05-24T07:52:17.885Z,31.10
2018-05-24T07:54:47.333Z,31.01
2018-05-24T07:57:16.290Z,31.35
2018-05-24T07:59:45.157Z,31.06
2018-05-24T08:02:14.563Z,30.95
2018-05-24T08:04:44.256Z,31.05
2018-05-24T08:07:13.750Z,29.49
2018-05-24T08:09:42.982Z,29.62
2018-05-24T08:12:12.420Z,30.11
2018-05-24T08:14:41.991Z,30.91
2018-05-24T08:17:11.286Z,30.40
2018-05-24T08:19:41.099Z,29.86
2018-05-24T08:22:11.025Z,30.21
2018-05-24T08:24:40.268Z,29.91
2018-05-24T08:27:09.764Z,30.34
2018-05-24T08:29:38.620Z,30.81
2018-05-24T08:32:08.126Z,30.70
2018-05-24T08:34:37.406Z,30.53
2018-05-24T08:37:06.416Z,30.53
2018-05-24T08:39:35.948Z,30.76
2018-05-24T08:42:05.771Z,31.47
2018-05-24T08:44:34.400Z,31.12
2018-05-24T08:47:03.713Z,31.27
2018-05-24T08:49:33.285Z,31.07
2018-05-24T08:52:05.184Z,30.94
2018-05-24T08:54:34.560Z,31.00
2018-05-24T08:57:03.799Z,31.06
2018-05-24T08:59:33.181Z,30.66
2018-05-24T09:02:03.322Z,31.02
2018-05-24T09:04:32.189Z,30.29
2018-05-24T09:07:01.674Z,29.83
2018-05-24T09:09:31.356Z,31.36
2018-05-24T09:12:00.564Z,31.12
2018-05-24T09:14:29.675Z,31.50
2018-05-24T09:16:59.139Z,29.48
2018-05-24T09:19:28.635Z,29.90
2018-05-24T09:21:58.457Z,29.43
2018-05-24T09:24:28.941Z,29.83
2018-05-24T09:26:59.273Z,29.89
2018-05-24T09:29:28.407Z,29.32
2018-05-24T09:31:58.271Z,28.46
2018-05-24T09:34:28.066Z,29.11
2018-05-24T09:36:58.205Z,29.09
2018-05-24T09:39:27.229Z,29.11
2018-05-24T09:41:55.551Z,29.79
2018-05-24T09:44:24.783Z,29.43
2018-05-24T09:46:53.633Z,29.64
2018-05-24T09:49:22.892Z,30.35
2018-05-24T09:51:51.959Z,28.74
2018-05-24T09:54:21.284Z,28.17
2018-05-24T09:56:51.030Z,28.90
2018-05-24T09:59:20.562Z,29.02
2018-05-24T10:01:50.324Z,29.96
2018-05-24T10:04:21.732Z,29.54
2018-05-24T10:06:50.658Z,28.60
2018-05-24T10:09:19.848Z,28.15
2018-05-24T10:11:49.305Z,27.37
2018-05-24T10:14:18.616Z,26.30
2018-05-24T10:16:49.949Z,26.93
2018-05-24T10:19:19.674Z,27.24
2018-05-24T10:21:49.265Z,26.54
2018-05-24T10:24:18.313Z,25.77
2018-05-24T10:26:47.874Z,25.37
2018-05-24T10:29:18.161Z,25.12
2018-05-24T10:31:47.333Z,25.29
2018-05-24T10:34:16.549Z,24.95
2018-05-24T10:36:45.627Z,24.66
2018-05-24T10:39:15.049Z,24.66
2018-05-24T10:41:44.853Z,24.45
2018-05-24T10:44:14.255Z,24.56
2018-05-24T10:46:44.020Z,24.23
2018-05-24T10:49:14.072Z,24.13
2018-05-24T10:51:43.976Z,24.29
2018-05-24T10:54:13.910Z,24.16
2018-05-24T10:56:43.894Z,24.40
2018-05-24T10:59:13.284Z,24.28
2018-05-24T11:01:43.213Z,24.30
2018-05-24T11:04:12.454Z,24.36
2018-05-24T11:06:41.479Z,24.18
2018-05-24T11:09:10.479Z,23.94
2018-05-24T11:11:39.827Z,24.12
2018-05-24T11:14:09.214Z,23.69
2018-05-24T11:16:38.805Z,23.77
2018-05-24T11:19:07.759Z,23.66
2018-05-24T11:21:37.342Z,23.35
2018-05-24T11:24:06.412Z,23.11
2018-05-24T11:26:35.224Z,23.19
2018-05-24T11:29:04.903Z,22.85
2018-05-24T11:31:34.729Z,23.12
2018-05-24T11:34:04.107Z,23.38
2018-05-24T11:36:33.688Z,23.70
2018-05-24T11:39:03.329Z,23.29
2018-05-24T11:41:32.343Z,23.44
2018-05-24T11:44:01.615Z,23.44
2018-05-24T11:46:31.567Z,23.35
2018-05-24T11:49:01.009Z,23.30
2018-05-24T11:51:30.354Z,23.09
2018-05-24T11:53:59.522Z,22.81
2018-05-24T11:56:29.059Z,22.70
2018-05-24T11:58:58.346Z,22.71
2018-05-24T12:01:27.473Z,22.82
2018-05-24T12:03:56.433Z,22.85
2018-05-24T12:06:25.847Z,23.12
2018-05-24T12:08:54.782Z,22.23
2018-05-24T12:11:23.560Z,22.37
2018-05-24T12:13:53.200Z,22.67
2018-05-24T12:16:22.883Z,21.62
2018-05-24T12:18:52.044Z,21.86
2018-05-24T12:21:21.658Z,21.91
2018-05-24T12:23:51.385Z,21.91
2018-05-24T12:26:20.132Z,22.17
2018-05-24T12:28:49.481Z,22.46
2018-05-24T12:31:18.958Z,22.88
2018-05-24T12:33:48.756Z,23.29
2018-05-24T12:36:17.768Z,22.55
2018-05-24T12:38:47.533Z,22.14
2018-05-24T12:41:17.308Z,22.11
2018-05-24T12:43:46.145Z,22.17
2018-05-24T12:46:15.186Z,21.94
2018-05-24T12:48:44.340Z,22.22
2018-05-24T12:51:13.896Z,22.47
2018-05-24T12:53:43.234Z,22.51
2018-05-24T12:56:12.729Z,22.19
2018-05-24T12:58:41.909Z,22.32
2018-05-24T13:01:11.375Z,22.54
2018-05-24T13:03:40.661Z,22.58
2018-05-24T13:06:10.463Z,22.50
2018-05-24T13:08:39.719Z,22.50
2018-05-24T13:11:08.724Z,22.61
2018-05-24T13:13:38.008Z,22.73
2018-05-24T13:16:07.569Z,22.79
2018-05-24T13:18:37.169Z,22.85
2018-05-24T13:21:07.607Z,22.88
2018-05-24T13:23:36.961Z,23.02
2018-05-24T13:26:06.104Z,23.13
2018-05-24T13:28:35.654Z,23.17
2018-05-24T13:31:05.663Z,23.07
2018-05-24T13:33:35.160Z,23.12
2018-05-24T13:36:05.107Z,23.12
2018-05-24T13:38:34.425Z,23.12
2018-05-24T13:41:03.754Z,23.32
2018-05-24T13:43:33.018Z,23.40
2018-05-24T13:46:02.352Z,23.49
2018-05-24T13:48:31.610Z,23.44
2018-05-24T13:51:01.063Z,23.58
2018-05-24T13:53:30.759Z,23.66
2018-05-24T13:56:00.751Z,23.72
2018-05-24T13:58:30.563Z,23.71
2018-05-24T14:01:00.061Z,23.78
2018-05-24T14:03:29.434Z,23.85
2018-05-24T14:05:58.566Z,23.90
2018-05-24T14:08:28.344Z,23.97
2018-05-24T14:10:57.515Z,24.09
2018-05-24T14:13:26.339Z,24.16
2018-05-24T14:15:55.838Z,24.18
2018-05-24T14:18:24.843Z,24.25
2018-05-24T14:20:54.577Z,24.22
2018-05-24T14:23:24.618Z,24.37
2018-05-24T14:25:54.125Z,24.43
2018-05-24T14:28:23.204Z,24.44
2018-05-24T14:30:52.650Z,24.39
2018-05-24T14:33:21.994Z,24.54
2018-05-24T14:35:50.946Z,24.44
2018-05-24T14:38:20.394Z,24.68
2018-05-24T14:40:50.026Z,24.81
2018-05-24T14:43:18.822Z,24.95
2018-05-24T14:45:48.243Z,24.82
2018-05-24T14:48:17.761Z,25.07
2018-05-24T14:50:47.866Z,25.08
2018-05-24T14:53:16.492Z,25.13
2018-05-24T14:55:45.955Z,24.91
2018-05-24T14:58:14.774Z,25.15
2018-05-24T15:00:44.212Z,25.08
2018-05-24T15:03:13.327Z,25.31
2018-05-24T15:05:42.480Z,25.35
2018-05-24T15:08:11.808Z,25.41
2018-05-24T15:10:41.634Z,25.50
2018-05-24T15:13:14.841Z,25.55
2018-05-24T15:15:44.189Z,25.71
2018-05-24T15:18:13.916Z,25.68
2018-05-24T15:20:43.250Z,25.96
2018-05-24T15:23:12.918Z,26.19
2018-05-24T15:25:42.981Z,26.35
2018-05-24T15:28:12.398Z,26.68
2018-05-24T15:30:41.772Z,26.66
2018-05-24T15:33:10.713Z,26.90
2018-05-24T15:35:45.501Z,27.11
2018-05-24T15:38:17.445Z,27.26
2018-05-24T15:40:51.049Z,27.37
2018-05-24T15:43:20.651Z,27.34
2018-05-24T15:45:52.900Z,27.33
2018-05-24T15:48:22.775Z,27.33
2018-05-24T15:50:56.459Z,27.38
2018-05-24T15:53:26.911Z,27.52
2018-05-24T15:56:01.897Z,27.58
2018-05-24T15:58:35.590Z,27.61
2018-05-24T16:01:11.565Z,27.61
2018-05-24T16:03:41.053Z,27.66
2018-05-24T16:06:12.517Z,27.93
2018-05-24T16:08:46.194Z,28.41
2018-05-24T16:11:15.656Z,28.29
2018-05-24T16:13:50.756Z,28.55
2018-05-24T16:16:19.936Z,29.45
2018-05-24T16:18:48.944Z,29.28
2018-05-24T16:21:18.615Z,29.86
2018-05-24T16:23:52.699Z,30.05
2018-05-24T16:26:22.499Z,29.92
2018-05-24T16:28:55.536Z,30.48
2018-05-24T16:31:27.784Z,30.72
2018-05-24T16:33:59.748Z,30.69
2018-05-24T16:36:32.245Z,30.68
2018-05-24T16:39:07.506Z,31.12
2018-05-24T16:41:40.607Z,31.25
2018-05-24T16:44:09.759Z,31.38
2018-05-24T16:46:38.739Z,31.29
2018-05-24T16:49:07.883Z,31.33
2018-05-24T16:51:37.351Z,31.45
2018-05-24T16:54:06.364Z,31.36
2018-05-24T16:56:40.627Z,31.52
2018-05-24T16:59:10.371Z,31.77
2018-05-24T17:01:39.897Z,31.66
2018-05-24T17:04:09.343Z,31.68
2018-05-24T17:06:38.382Z,31.78
2018-05-24T17:09:07.462Z,31.37
2018-05-24T17:11:36.628Z,31.95
2018-05-24T17:14:06.413Z,31.66
2018-05-24T17:16:35.604Z,31.68
2018-05-24T17:19:04.840Z,31.78
2018-05-24T17:21:34.410Z,31.72
2018-05-24T17:24:03.734Z,31.60
2018-05-24T17:26:33.574Z,31.65
2018-05-24T17:29:03.127Z,31.61
2018-05-24T17:31:32.220Z,31.48
2018-05-24T17:34:01.370Z,31.47
2018-05-24T17:36:30.241Z,31.41
2018-05-24T17:38:59.821Z,31.71
2018-05-24T17:41:29.375Z,31.03
2018-05-24T17:43:59.096Z,31.72
2018-05-24T17:46:28.823Z,31.49
2018-05-24T17:48:58.260Z,31.27
2018-05-24T17:51:27.371Z,31.61
2018-05-24T17:53:56.204Z,31.53
2018-05-24T17:56:25.405Z,30.88
2018-05-24T17:58:54.453Z,31.48
2018-05-24T18:01:23.920Z,31.36
2018-05-24T18:03:53.519Z,30.80
2018-05-24T18:06:22.652Z,31.82
2018-05-24T18:08:52.342Z,30.59
2018-05-24T18:11:21.842Z,30.82
2018-05-24T18:13:51.136Z,30.94
2018-05-24T18:16:20.501Z,31.35
2018-05-24T18:18:49.311Z,31.37
2018-05-24T18:21:18.798Z,31.15
2018-05-24T18:23:48.435Z,31.14
2018-05-24T18:26:18.197Z,31.39
2018-05-24T18:28:46.959Z,30.95
2018-05-24T18:31:16.582Z,31.17
2018-05-24T18:33:46.355Z,31.15
2018-05-24T18:36:16.304Z,31.33
2018-05-24T18:38:45.967Z,31.28
2018-05-24T18:41:15.657Z,31.24
2018-05-24T18:43:45.068Z,31.57
2018-05-24T18:46:14.656Z,31.60
2018-05-24T18:48:43.884Z,31.55
2018-05-24T18:51:13.703Z,31.60
2018-05-24T18:53:42.718Z,31.39
2018-05-24T18:56:11.648Z,31.45
2018-05-24T18:58:40.607Z,31.59
2018-05-24T19:01:09.575Z,31.53
2018-05-24T19:03:38.296Z,31.58
2018-05-24T19:06:07.630Z,31.55
2018-05-24T19:08:36.875Z,31.38
2018-05-24T19:11:06.281Z,31.44
2018-05-24T19:13:35.110Z,31.42
2018-05-24T19:16:04.323Z,31.20
2018-05-24T19:18:33.897Z,30.84
2018-05-24T19:21:02.832Z,30.95
2018-05-24T19:23:32.163Z,31.41
2018-05-24T19:26:01.674Z,30.88
2018-05-24T19:28:31.224Z,31.68
2018-05-24T19:31:00.682Z,31.08
2018-05-24T19:36:03.375Z,31.28
2018-05-24T19:38:32.823Z,31.50
2018-05-24T19:41:02.733Z,31.47
2018-05-24T19:43:31.999Z,31.48
2018-05-24T19:46:00.854Z,31.04
2018-05-24T19:48:30.067Z,31.18
2018-05-24T19:50:59.589Z,31.42
2018-05-24T19:53:29.160Z,31.75
2018-05-24T19:55:58.639Z,31.66
2018-05-24T19:58:28.062Z,31.34
2018-05-24T20:00:57.724Z,31.54
2018-05-24T20:03:26.541Z,31.52
2018-05-24T20:05:56.132Z,31.64
2018-05-24T20:08:24.632Z,31.53
2018-05-24T20:10:54.298Z,31.74
2018-05-24T20:13:24.186Z,31.85
2018-05-24T20:15:53.828Z,31.73
2018-05-24T20:18:22.483Z,31.80
2018-05-24T20:20:51.913Z,31.81
2018-05-24T20:23:21.589Z,31.72
2018-05-24T20:25:50.725Z,31.98
2018-05-24T20:28:20.005Z,32.07
2018-05-24T20:30:49.962Z,31.72
2018-05-24T20:33:19.074Z,31.96
2018-05-24T20:35:48.099Z,32.10
2018-05-24T20:38:17.085Z,32.01
2018-05-24T20:40:46.281Z,31.97
2018-05-24T20:43:15.178Z,32.03
2018-05-24T20:45:44.632Z,32.13
2018-05-24T20:48:14.489Z,32.05
2018-05-24T20:50:43.594Z,32.07
2018-05-24T20:53:12.695Z,32.14
2018-05-24T20:55:42.039Z,32.05
2018-05-24T20:58:11.129Z,32.23
2018-05-24T21:00:41.136Z,32.00
2018-05-24T21:03:10.936Z,31.83
2018-05-24T21:05:39.976Z,31.61
2018-05-24T21:08:08.952Z,31.72
2018-05-24T21:10:38.153Z,31.98
2018-05-24T21:13:07.580Z,31.84
2018-05-24T21:15:37.196Z,31.67
2018-05-24T21:18:06.740Z,31.67
2018-05-24T21:20:36.422Z,31.25
2018-05-24T21:23:05.452Z,31.49
2018-05-24T21:25:35.084Z,31.05
2018-05-24T21:28:04.436Z,31.21
2018-05-24T21:30:33.202Z,30.80
2018-05-24T21:33:02.067Z,31.14
2018-05-24T21:35:31.261Z,30.63
2018-05-24T21:38:01.219Z,31.03
2018-05-24T21:40:30.458Z,30.39
2018-05-24T21:42:59.665Z,30.89
2018-05-24T21:45:28.748Z,30.94
2018-05-24T21:47:57.427Z,30.79
2018-05-24T21:50:26.712Z,30.92
2018-05-24T21:52:55.788Z,30.65
2018-05-24T21:55:25.619Z,30.33
2018-05-24T21:57:55.676Z,30.86
2018-05-24T22:00:24.640Z,30.85
2018-05-24T22:02:53.516Z,30.82
2018-05-24T22:05:22.624Z,31.06
2018-05-24T22:07:52.323Z,30.80
2018-05-24T22:10:21.701Z,30.96
2018-05-24T22:12:51.137Z,30.85
2018-05-24T22:15:20.893Z,30.91
2018-05-24T22:17:49.757Z,30.99
2018-05-24T22:20:19.139Z,30.56
2018-05-24T22:22:49.356Z,31.13
2018-05-24T22:25:18.365Z,30.90
2018-05-24T22:27:47.103Z,30.51
2018-05-24T22:30:16.436Z,30.73
2018-05-24T22:32:45.307Z,30.69
2018-05-24T22:35:14.602Z,30.83
2018-05-24T22:37:43.405Z,30.53
2018-05-24T22:40:13.079Z,30.72
2018-05-24T22:42:42.895Z,30.73
2018-05-24T22:45:12.214Z,31.12
2018-05-24T22:47:41.834Z,31.00
2018-05-24T22:50:10.977Z,31.49
2018-05-24T22:52:40.175Z,31.07
2018-05-24T22:55:09.588Z,31.00
2018-05-24T22:57:38.478Z,31.15
2018-05-24T23:00:07.482Z,31.22
2018-05-24T23:02:37.595Z,31.16
2018-05-24T23:05:07.765Z,31.01
2018-05-24T23:07:37.508Z,31.38
2018-05-24T23:10:06.936Z,31.52
2018-05-24T23:12:36.214Z,31.67
2018-05-24T23:15:05.075Z,31.89
2018-05-24T23:22:41.150Z,31.74
2018-05-24T23:27:44.049Z,31.65
2018-05-24T23:30:19.289Z,31.65
2018-05-24T23:32:48.332Z,31.51
2018-05-24T23:35:18.445Z,31.83
2018-05-24T23:37:47.868Z,31.77
2018-05-24T23:40:16.946Z,31.77
2018-05-24T23:42:45.928Z,32.00
2018-05-24T23:45:15.971Z,32.22
2018-05-24T23:47:45.212Z,31.87
2018-05-24T23:50:14.252Z,31.95
2018-05-24T23:52:43.480Z,32.04
2018-05-24T23:55:12.378Z,31.97
2018-05-24T23:57:41.643Z,32.06
